sensor_id;sensor_type;location;lat;lon;timestamp;P1;durP1;ratioP1;P2;durP2;ratioP2
50429;SDS011;36359;41.556;-8.418;2022-10-19T00:01:16;6.90;;;2.15;;
50429;SDS011;36359;41.556;-8.418;2022-10-19T00:03:47;5.35;;;2.50;;
50429;SDS011;36359;41.556;-8.418;2022-10-19T00:06:22;7.78;;;2.88;;
50429;SDS011;36359;41.556;-8.418;2022-10-19T00:08:51;7.20;;;2.85;;
50429;SDS011;36359;41.556;-8.418;2022-10-19T00:11:28;4.30;;;2.20;;
50429;SDS011;36359;41.556;-8.418;2022-10-19T00:13:55;5.55;;;2.38;;
50429;SDS011;36359;41.556;-8.418;2022-10-19T00:16:23;8.73;;;3.10;;
50429;SDS011;36359;41.556;-8.418;2022-10-19T00:18:50;9.02;;;3.17;;
50429;SDS011;36359;41.556;-8.418;2022-10-19T00:21:16;7.32;;;2.55;;
50429;SDS011;36359;41.556;-8.418;2022-10-19T00:23:43;4.88;;;2.20;;
50429;SDS011;36359;41.556;-8.418;2022-10-19T00:26:10;7.32;;;2.58;;
50429;SDS011;36359;41.556;-8.418;2022-10-19T00:28:36;4.57;;;2.47;;
50429;SDS011;36359;41.556;-8.418;2022-10-19T00:31:03;5.97;;;2.00;;
50429;SDS011;36359;41.556;-8.418;2022-10-19T00:33:34;5.88;;;2.25;;
50429;SDS011;36359;41.556;-8.418;2022-10-19T00:36:00;8.18;;;2.17;;
50429;SDS011;36359;41.556;-8.418;2022-10-19T00:38:26;7.03;;;1.95;;
50429;SDS011;36359;41.556;-8.418;2022-10-19T00:40:52;5.38;;;2.50;;
50429;SDS011;36359;41.556;-8.418;2022-10-19T00:43:21;6.82;;;2.50;;
50429;SDS011;36359;41.556;-8.418;2022-10-19T00:45:48;8.63;;;2.75;;
50429;SDS011;36359;41.556;-8.418;2022-10-19T00:48:16;8.55;;;2.35;;
50429;SDS011;36359;41.556;-8.418;2022-10-19T00:50:47;9.38;;;2.60;;
50429;SDS011;36359;41.556;-8.418;2022-10-19T00:53:15;4.88;;;2.53;;
50429;SDS011;36359;41.556;-8.418;2022-10-19T00:55:41;6.45;;;2.25;;
50429;SDS011;36359;41.556;-8.418;2022-10-19T00:58:07;8.88;;;2.85;;
50429;SDS011;36359;41.556;-8.418;2022-10-19T01:00:34;8.43;;;2.10;;
50429;SDS011;36359;41.556;-8.418;2022-10-19T01:03:00;6.72;;;2.53;;
50429;SDS011;36359;41.556;-8.418;2022-10-19T01:05:27;6.00;;;2.22;;
50429;SDS011;36359;41.556;-8.418;2022-10-19T01:07:55;7.00;;;3.00;;
50429;SDS011;36359;41.556;-8.418;2022-10-19T01:10:23;6.60;;;2.03;;
50429;SDS011;36359;41.556;-8.418;2022-10-19T01:24:54;5.57;;;2.05;;
50429;SDS011;36359;41.556;-8.418;2022-10-19T01:30:05;4.95;;;1.70;;
50429;SDS011;36359;41.556;-8.418;2022-10-19T01:40:46;6.15;;;1.98;;
50429;SDS011;36359;41.556;-8.418;2022-10-19T01:45:59;6.25;;;2.53;;
50429;SDS011;36359;41.556;-8.418;2022-10-19T01:48:41;7.32;;;2.70;;
50429;SDS011;36359;41.556;-8.418;2022-10-19T01:51:17;6.63;;;2.20;;
50429;SDS011;36359;41.556;-8.418;2022-10-19T01:53:55;7.15;;;2.58;;
50429;SDS011;36359;41.556;-8.418;2022-10-19T01:56:24;7.30;;;2.90;;
50429;SDS011;36359;41.556;-8.418;2022-10-19T01:58:53;7.07;;;2.58;;
50429;SDS011;36359;41.556;-8.418;2022-10-19T02:01:21;8.65;;;2.03;;
50429;SDS011;36359;41.556;-8.418;2022-10-19T02:03:49;9.35;;;2.50;;
50429;SDS011;36359;41.556;-8.418;2022-10-19T02:06:17;4.43;;;2.22;;
50429;SDS011;36359;41.556;-8.418;2022-10-19T02:08:45;11.18;;;2.90;;
50429;SDS011;36359;41.556;-8.418;2022-10-19T02:11:13;8.68;;;2.47;;
50429;SDS011;36359;41.556;-8.418;2022-10-19T02:13:39;5.00;;;1.98;;
50429;SDS011;36359;41.556;-8.418;2022-10-19T02:16:15;5.38;;;2.17;;
50429;SDS011;36359;41.556;-8.418;2022-10-19T02:18:47;6.35;;;2.20;;
50429;SDS011;36359;41.556;-8.418;2022-10-19T02:21:16;5.28;;;1.77;;
50429;SDS011;36359;41.556;-8.418;2022-10-19T02:23:43;6.00;;;2.28;;
50429;SDS011;36359;41.556;-8.418;2022-10-19T02:26:08;5.53;;;1.80;;
50429;SDS011;36359;41.556;-8.418;2022-10-19T02:28:35;5.43;;;1.88;;
50429;SDS011;36359;41.556;-8.418;2022-10-19T02:31:01;5.82;;;2.13;;
50429;SDS011;36359;41.556;-8.418;2022-10-19T02:33:27;4.88;;;2.08;;
50429;SDS011;36359;41.556;-8.418;2022-10-19T02:35:53;6.35;;;2.25;;
50429;SDS011;36359;41.556;-8.418;2022-10-19T02:38:20;6.25;;;2.28;;
50429;SDS011;36359;41.556;-8.418;2022-10-19T02:40:50;5.78;;;1.85;;
50429;SDS011;36359;41.556;-8.418;2022-10-19T02:43:28;6.05;;;1.52;;
50429;SDS011;36359;41.556;-8.418;2022-10-19T02:46:03;5.88;;;1.63;;
50429;SDS011;36359;41.556;-8.418;2022-10-19T02:48:35;4.10;;;1.75;;
50429;SDS011;36359;41.556;-8.418;2022-10-19T02:51:03;4.80;;;1.50;;
50429;SDS011;36359;41.556;-8.418;2022-10-19T02:53:29;9.65;;;1.52;;
50429;SDS011;36359;41.556;-8.418;2022-10-19T02:55:54;4.68;;;1.67;;
50429;SDS011;36359;41.556;-8.418;2022-10-19T02:58:20;6.75;;;1.83;;
50429;SDS011;36359;41.556;-8.418;2022-10-19T03:00:46;4.05;;;1.60;;
50429;SDS011;36359;41.556;-8.418;2022-10-19T03:03:11;5.05;;;1.90;;
50429;SDS011;36359;41.556;-8.418;2022-10-19T03:05:37;4.78;;;1.98;;
50429;SDS011;36359;41.556;-8.418;2022-10-19T03:08:03;6.47;;;2.35;;
50429;SDS011;36359;41.556;-8.418;2022-10-19T03:10:29;9.43;;;2.58;;
50429;SDS011;36359;41.556;-8.418;2022-10-19T03:12:58;5.43;;;2.00;;
50429;SDS011;36359;41.556;-8.418;2022-10-19T03:15:23;7.30;;;2.28;;
50429;SDS011;36359;41.556;-8.418;2022-10-19T03:17:53;8.88;;;2.40;;
50429;SDS011;36359;41.556;-8.418;2022-10-19T03:20:19;7.30;;;2.10;;
50429;SDS011;36359;41.556;-8.418;2022-10-19T03:22:45;4.28;;;1.88;;
50429;SDS011;36359;41.556;-8.418;2022-10-19T03:25:11;7.72;;;1.80;;
50429;SDS011;36359;41.556;-8.418;2022-10-19T03:27:36;6.78;;;1.98;;
50429;SDS011;36359;41.556;-8.418;2022-10-19T03:30:02;7.15;;;1.40;;
50429;SDS011;36359;41.556;-8.418;2022-10-19T03:32:28;4.70;;;1.67;;
50429;SDS011;36359;41.556;-8.418;2022-10-19T03:34:54;4.47;;;1.40;;
50429;SDS011;36359;41.556;-8.418;2022-10-19T03:37:20;8.40;;;2.33;;
50429;SDS011;36359;41.556;-8.418;2022-10-19T03:39:46;6.45;;;1.30;;
50429;SDS011;36359;41.556;-8.418;2022-10-19T03:42:12;6.53;;;1.33;;
50429;SDS011;36359;41.556;-8.418;2022-10-19T03:44:38;5.18;;;1.27;;
50429;SDS011;36359;41.556;-8.418;2022-10-19T03:47:04;5.20;;;1.60;;
50429;SDS011;36359;41.556;-8.418;2022-10-19T03:49:29;3.47;;;1.35;;
50429;SDS011;36359;41.556;-8.418;2022-10-19T03:51:55;4.63;;;1.23;;
50429;SDS011;36359;41.556;-8.418;2022-10-19T03:54:21;6.70;;;1.13;;
50429;SDS011;36359;41.556;-8.418;2022-10-19T03:56:46;5.78;;;1.65;;
50429;SDS011;36359;41.556;-8.418;2022-10-19T03:59:13;5.47;;;1.30;;
50429;SDS011;36359;41.556;-8.418;2022-10-19T04:01:40;7.47;;;1.23;;
50429;SDS011;36359;41.556;-8.418;2022-10-19T04:04:09;5.07;;;1.20;;
50429;SDS011;36359;41.556;-8.418;2022-10-19T04:06:40;6.47;;;1.45;;
50429;SDS011;36359;41.556;-8.418;2022-10-19T04:09:08;6.03;;;1.30;;
50429;SDS011;36359;41.556;-8.418;2022-10-19T04:11:36;7.82;;;1.17;;
50429;SDS011;36359;41.556;-8.418;2022-10-19T04:14:03;5.57;;;1.85;;
50429;SDS011;36359;41.556;-8.418;2022-10-19T04:16:29;5.30;;;1.10;;
50429;SDS011;36359;41.556;-8.418;2022-10-19T04:18:56;6.75;;;1.30;;
50429;SDS011;36359;41.556;-8.418;2022-10-19T04:21:24;8.23;;;3.65;;
50429;SDS011;36359;41.556;-8.418;2022-10-19T04:24:00;5.97;;;0.70;;
50429;SDS011;36359;41.556;-8.418;2022-10-19T04:26:37;3.90;;;1.17;;
50429;SDS011;36359;41.556;-8.418;2022-10-19T04:31:30;3.88;;;0.80;;
50429;SDS011;36359;41.556;-8.418;2022-10-19T04:33:56;1.98;;;0.68;;
50429;SDS011;36359;41.556;-8.418;2022-10-19T04:36:22;2.00;;;0.25;;
50429;SDS011;36359;41.556;-8.418;2022-10-19T04:38:48;1.63;;;0.60;;
50429;SDS011;36359;41.556;-8.418;2022-10-19T04:41:14;2.47;;;0.30;;
50429;SDS011;36359;41.556;-8.418;2022-10-19T04:43:43;2.10;;;0.30;;
50429;SDS011;36359;41.556;-8.418;2022-10-19T04:46:11;2.45;;;0.88;;
50429;SDS011;36359;41.556;-8.418;2022-10-19T04:48:38;2.60;;;0.80;;
50429;SDS011;36359;41.556;-8.418;2022-10-19T04:51:05;2.88;;;0.60;;
50429;SDS011;36359;41.556;-8.418;2022-10-19T04:53:31;4.53;;;1.15;;
50429;SDS011;36359;41.556;-8.418;2022-10-19T04:55:57;6.55;;;1.38;;
50429;SDS011;36359;41.556;-8.418;2022-10-19T04:58:23;1.70;;;0.52;;
50429;SDS011;36359;41.556;-8.418;2022-10-19T05:00:49;1.90;;;0.30;;
50429;SDS011;36359;41.556;-8.418;2022-10-19T05:03:15;1.55;;;0.50;;
50429;SDS011;36359;41.556;-8.418;2022-10-19T05:05:41;3.10;;;0.90;;
50429;SDS011;36359;41.556;-8.418;2022-10-19T05:08:07;3.88;;;0.43;;
50429;SDS011;36359;41.556;-8.418;2022-10-19T05:10:35;4.15;;;0.98;;
50429;SDS011;36359;41.556;-8.418;2022-10-19T05:13:02;3.13;;;0.90;;
50429;SDS011;36359;41.556;-8.418;2022-10-19T05:15:28;2.00;;;0.80;;
50429;SDS011;36359;41.556;-8.418;2022-10-19T05:17:54;4.05;;;1.08;;
50429;SDS011;36359;41.556;-8.418;2022-10-19T05:20:20;3.08;;;0.55;;
50429;SDS011;36359;41.556;-8.418;2022-10-19T05:22:47;4.15;;;0.52;;
50429;SDS011;36359;41.556;-8.418;2022-10-19T05:25:12;1.55;;;0.28;;
50429;SDS011;36359;41.556;-8.418;2022-10-19T05:27:38;2.03;;;1.05;;
50429;SDS011;36359;41.556;-8.418;2022-10-19T05:30:04;3.55;;;1.00;;
50429;SDS011;36359;41.556;-8.418;2022-10-19T05:32:32;2.30;;;1.42;;
50429;SDS011;36359;41.556;-8.418;2022-10-19T05:34:59;3.00;;;0.90;;
50429;SDS011;36359;41.556;-8.418;2022-10-19T05:37:24;5.93;;;1.02;;
50429;SDS011;36359;41.556;-8.418;2022-10-19T05:39:50;1.98;;;0.88;;
50429;SDS011;36359;41.556;-8.418;2022-10-19T05:42:16;2.75;;;0.50;;
50429;SDS011;36359;41.556;-8.418;2022-10-19T05:44:42;2.45;;;0.70;;
50429;SDS011;36359;41.556;-8.418;2022-10-19T05:47:08;2.92;;;0.50;;
50429;SDS011;36359;41.556;-8.418;2022-10-19T05:49:33;4.35;;;0.90;;
50429;SDS011;36359;41.556;-8.418;2022-10-19T05:51:59;3.22;;;1.02;;
50429;SDS011;36359;41.556;-8.418;2022-10-19T05:54:25;2.88;;;0.80;;
50429;SDS011;36359;41.556;-8.418;2022-10-19T05:56:51;2.75;;;0.70;;
50429;SDS011;36359;41.556;-8.418;2022-10-19T05:59:18;1.23;;;0.55;;
50429;SDS011;36359;41.556;-8.418;2022-10-19T06:01:45;2.63;;;0.75;;
50429;SDS011;36359;41.556;-8.418;2022-10-19T06:04:12;2.60;;;0.47;;
50429;SDS011;36359;41.556;-8.418;2022-10-19T06:06:40;2.08;;;0.55;;
50429;SDS011;36359;41.556;-8.418;2022-10-19T06:09:07;4.07;;;1.10;;
50429;SDS011;36359;41.556;-8.418;2022-10-19T06:11:34;5.03;;;1.60;;
50429;SDS011;36359;41.556;-8.418;2022-10-19T06:14:04;6.35;;;1.38;;
50429;SDS011;36359;41.556;-8.418;2022-10-19T06:16:32;4.88;;;1.17;;
50429;SDS011;36359;41.556;-8.418;2022-10-19T06:18:59;7.30;;;2.28;;
50429;SDS011;36359;41.556;-8.418;2022-10-19T06:21:28;4.35;;;1.77;;
50429;SDS011;36359;41.556;-8.418;2022-10-19T06:23:56;7.30;;;1.90;;
50429;SDS011;36359;41.556;-8.418;2022-10-19T06:26:28;6.47;;;1.85;;
50429;SDS011;36359;41.556;-8.418;2022-10-19T06:28:56;12.27;;;2.45;;
50429;SDS011;36359;41.556;-8.418;2022-10-19T06:31:31;7.43;;;1.60;;
50429;SDS011;36359;41.556;-8.418;2022-10-19T06:33:58;3.20;;;1.10;;
50429;SDS011;36359;41.556;-8.418;2022-10-19T06:36:25;8.30;;;1.75;;
50429;SDS011;36359;41.556;-8.418;2022-10-19T06:38:53;5.57;;;1.73;;
50429;SDS011;36359;41.556;-8.418;2022-10-19T06:41:20;9.88;;;2.38;;
50429;SDS011;36359;41.556;-8.418;2022-10-19T06:43:52;9.45;;;3.05;;
50429;SDS011;36359;41.556;-8.418;2022-10-19T06:46:19;14.80;;;6.43;;
50429;SDS011;36359;41.556;-8.418;2022-10-19T06:49:00;12.60;;;4.38;;
50429;SDS011;36359;41.556;-8.418;2022-10-19T06:51:28;6.40;;;1.85;;
50429;SDS011;36359;41.556;-8.418;2022-10-19T06:53:56;12.23;;;2.25;;
50429;SDS011;36359;41.556;-8.418;2022-10-19T06:56:22;6.30;;;1.40;;
50429;SDS011;36359;41.556;-8.418;2022-10-19T06:58:51;12.20;;;1.88;;
50429;SDS011;36359;41.556;-8.418;2022-10-19T07:01:17;5.80;;;1.33;;
50429;SDS011;36359;41.556;-8.418;2022-10-19T07:03:44;6.28;;;1.23;;
50429;SDS011;36359;41.556;-8.418;2022-10-19T07:06:10;5.07;;;1.30;;
50429;SDS011;36359;41.556;-8.418;2022-10-19T07:08:38;9.00;;;1.83;;
50429;SDS011;36359;41.556;-8.418;2022-10-19T07:11:05;6.47;;;1.40;;
50429;SDS011;36359;41.556;-8.418;2022-10-19T07:13:34;9.73;;;1.90;;
50429;SDS011;36359;41.556;-8.418;2022-10-19T07:16:00;6.35;;;1.50;;
50429;SDS011;36359;41.556;-8.418;2022-10-19T07:18:36;8.88;;;1.40;;
50429;SDS011;36359;41.556;-8.418;2022-10-19T07:21:04;8.93;;;1.50;;
50429;SDS011;36359;41.556;-8.418;2022-10-19T07:23:33;7.13;;;1.80;;
50429;SDS011;36359;41.556;-8.418;2022-10-19T07:26:05;4.88;;;1.20;;
50429;SDS011;36359;41.556;-8.418;2022-10-19T07:28:34;8.73;;;1.63;;
50429;SDS011;36359;41.556;-8.418;2022-10-19T07:31:04;6.18;;;1.08;;
50429;SDS011;36359;41.556;-8.418;2022-10-19T07:33:32;7.55;;;1.70;;
50429;SDS011;36359;41.556;-8.418;2022-10-19T07:35:58;5.00;;;0.98;;
50429;SDS011;36359;41.556;-8.418;2022-10-19T07:40:58;4.22;;;1.23;;
50429;SDS011;36359;41.556;-8.418;2022-10-19T07:43:30;5.72;;;1.38;;
50429;SDS011;36359;41.556;-8.418;2022-10-19T07:45:57;5.63;;;0.95;;
50429;SDS011;36359;41.556;-8.418;2022-10-19T07:48:33;3.97;;;1.00;;
50429;SDS011;36359;41.556;-8.418;2022-10-19T07:51:00;5.55;;;1.13;;
50429;SDS011;36359;41.556;-8.418;2022-10-19T07:53:27;4.35;;;1.20;;
50429;SDS011;36359;41.556;-8.418;2022-10-19T07:55:53;6.05;;;0.90;;
50429;SDS011;36359;41.556;-8.418;2022-10-19T07:58:19;5.88;;;1.20;;
50429;SDS011;36359;41.556;-8.418;2022-10-19T08:00:45;5.68;;;1.08;;
50429;SDS011;36359;41.556;-8.418;2022-10-19T08:03:11;5.95;;;1.05;;
50429;SDS011;36359;41.556;-8.418;2022-10-19T08:05:37;5.57;;;1.02;;
50429;SDS011;36359;41.556;-8.418;2022-10-19T08:08:03;6.60;;;1.42;;
50429;SDS011;36359;41.556;-8.418;2022-10-19T08:10:29;10.30;;;1.55;;
50429;SDS011;36359;41.556;-8.418;2022-10-19T08:12:55;10.82;;;1.38;;
50429;SDS011;36359;41.556;-8.418;2022-10-19T08:15:21;7.32;;;1.40;;
50429;SDS011;36359;41.556;-8.418;2022-10-19T08:17:47;8.77;;;1.85;;
50429;SDS011;36359;41.556;-8.418;2022-10-19T08:20:15;9.15;;;1.40;;
50429;SDS011;36359;41.556;-8.418;2022-10-19T08:22:42;9.20;;;1.77;;
50429;SDS011;36359;41.556;-8.418;2022-10-19T08:25:09;15.05;;;1.92;;
50429;SDS011;36359;41.556;-8.418;2022-10-19T08:27:35;11.90;;;1.88;;
50429;SDS011;36359;41.556;-8.418;2022-10-19T08:30:00;14.95;;;2.25;;
50429;SDS011;36359;41.556;-8.418;2022-10-19T08:32:26;10.32;;;2.08;;
50429;SDS011;36359;41.556;-8.418;2022-10-19T08:34:52;9.38;;;2.05;;
50429;SDS011;36359;41.556;-8.418;2022-10-19T08:37:19;6.22;;;1.73;;
50429;SDS011;36359;41.556;-8.418;2022-10-19T08:39:45;8.05;;;1.27;;
50429;SDS011;36359;41.556;-8.418;2022-10-19T08:42:13;9.18;;;1.40;;
50429;SDS011;36359;41.556;-8.418;2022-10-19T08:50:46;10.27;;;1.30;;
50429;SDS011;36359;41.556;-8.418;2022-10-19T08:53:14;8.38;;;1.38;;
50429;SDS011;36359;41.556;-8.418;2022-10-19T09:01:24;8.02;;;1.20;;
50429;SDS011;36359;41.556;-8.418;2022-10-19T09:04:46;7.78;;;1.40;;
50429;SDS011;36359;41.556;-8.418;2022-10-19T09:09:57;8.23;;;1.42;;
50429;SDS011;36359;41.556;-8.418;2022-10-19T09:15:10;7.90;;;1.65;;
50429;SDS011;36359;41.556;-8.418;2022-10-19T09:17:39;6.68;;;1.25;;
50429;SDS011;36359;41.556;-8.418;2022-10-19T09:20:13;9.75;;;1.55;;
50429;SDS011;36359;41.556;-8.418;2022-10-19T09:22:39;9.57;;;1.48;;
50429;SDS011;36359;41.556;-8.418;2022-10-19T09:25:18;12.52;;;1.35;;
50429;SDS011;36359;41.556;-8.418;2022-10-19T09:27:57;6.45;;;1.48;;
50429;SDS011;36359;41.556;-8.418;2022-10-19T09:30:36;5.30;;;1.48;;
50429;SDS011;36359;41.556;-8.418;2022-10-19T09:33:07;8.05;;;1.10;;
50429;SDS011;36359;41.556;-8.418;2022-10-19T09:35:41;8.02;;;2.08;;
50429;SDS011;36359;41.556;-8.418;2022-10-19T09:38:09;12.52;;;2.75;;
50429;SDS011;36359;41.556;-8.418;2022-10-19T09:40:40;13.77;;;4.07;;
50429;SDS011;36359;41.556;-8.418;2022-10-19T09:43:06;14.77;;;6.35;;
50429;SDS011;36359;41.556;-8.418;2022-10-19T09:51:12;34.03;;;15.48;;
50429;SDS011;36359;41.556;-8.418;2022-10-19T09:56:20;25.92;;;11.85;;
50429;SDS011;36359;41.556;-8.418;2022-10-19T09:58:48;23.45;;;8.82;;
50429;SDS011;36359;41.556;-8.418;2022-10-19T10:04:08;24.70;;;11.77;;
50429;SDS011;36359;41.556;-8.418;2022-10-19T10:06:42;17.77;;;8.32;;
50429;SDS011;36359;41.556;-8.418;2022-10-19T10:09:14;17.25;;;7.85;;
50429;SDS011;36359;41.556;-8.418;2022-10-19T10:11:42;16.85;;;7.35;;
50429;SDS011;36359;41.556;-8.418;2022-10-19T10:16:55;11.73;;;4.00;;
50429;SDS011;36359;41.556;-8.418;2022-10-19T10:19:26;12.32;;;4.85;;
50429;SDS011;36359;41.556;-8.418;2022-10-19T10:21:55;13.65;;;4.72;;
50429;SDS011;36359;41.556;-8.418;2022-10-19T10:24:28;10.57;;;4.63;;
50429;SDS011;36359;41.556;-8.418;2022-10-19T10:26:57;10.38;;;4.20;;
50429;SDS011;36359;41.556;-8.418;2022-10-19T10:29:28;12.45;;;3.42;;
50429;SDS011;36359;41.556;-8.418;2022-10-19T10:37:28;9.02;;;3.38;;
50429;SDS011;36359;41.556;-8.418;2022-10-19T10:40:02;8.10;;;2.97;;
50429;SDS011;36359;41.556;-8.418;2022-10-19T10:45:15;9.70;;;2.70;;
50429;SDS011;36359;41.556;-8.418;2022-10-19T10:47:44;8.63;;;2.80;;
50429;SDS011;36359;41.556;-8.418;2022-10-19T10:50:18;11.20;;;2.60;;
50429;SDS011;36359;41.556;-8.418;2022-10-19T10:53:00;7.15;;;2.78;;
50429;SDS011;36359;41.556;-8.418;2022-10-19T10:55:29;7.40;;;2.85;;
50429;SDS011;36359;41.556;-8.418;2022-10-19T11:00:39;7.80;;;2.90;;
50429;SDS011;36359;41.556;-8.418;2022-10-19T11:03:15;11.32;;;2.83;;
50429;SDS011;36359;41.556;-8.418;2022-10-19T11:05:54;6.75;;;2.85;;
50429;SDS011;36359;41.556;-8.418;2022-10-19T11:09:05;8.15;;;2.90;;
50429;SDS011;36359;41.556;-8.418;2022-10-19T11:11:22;6.53;;;2.00;;
50429;SDS011;36359;41.556;-8.418;2022-10-19T11:13:59;10.45;;;2.63;;
50429;SDS011;36359;41.556;-8.418;2022-10-19T11:16:27;6.13;;;1.73;;
50429;SDS011;36359;41.556;-8.418;2022-10-19T11:19:12;7.20;;;2.72;;
50429;SDS011;36359;41.556;-8.418;2022-10-19T11:21:46;9.88;;;1.90;;
50429;SDS011;36359;41.556;-8.418;2022-10-19T11:32:25;11.15;;;3.85;;
50429;SDS011;36359;41.556;-8.418;2022-10-19T11:35:19;8.93;;;2.78;;
50429;SDS011;36359;41.556;-8.418;2022-10-19T11:41:10;6.47;;;2.13;;
50429;SDS011;36359;41.556;-8.418;2022-10-19T11:44:01;8.93;;;1.70;;
50429;SDS011;36359;41.556;-8.418;2022-10-19T11:46:28;9.40;;;2.90;;
50429;SDS011;36359;41.556;-8.418;2022-10-19T11:57:54;10.88;;;2.33;;
50429;SDS011;36359;41.556;-8.418;2022-10-19T12:00:36;8.55;;;2.47;;
50429;SDS011;36359;41.556;-8.418;2022-10-19T12:13:56;7.78;;;1.83;;
50429;SDS011;36359;41.556;-8.418;2022-10-19T12:17:00;16.50;;;7.20;;
50429;SDS011;36359;41.556;-8.418;2022-10-19T12:19:25;6.03;;;1.88;;
50429;SDS011;36359;41.556;-8.418;2022-10-19T12:22:03;7.13;;;1.83;;
50429;SDS011;36359;41.556;-8.418;2022-10-19T12:24:31;6.40;;;1.42;;
50429;SDS011;36359;41.556;-8.418;2022-10-19T12:26:58;6.90;;;1.70;;
50429;SDS011;36359;41.556;-8.418;2022-10-19T12:29:26;10.30;;;1.73;;
50429;SDS011;36359;41.556;-8.418;2022-10-19T12:31:59;7.18;;;1.77;;
50429;SDS011;36359;41.556;-8.418;2022-10-19T12:34:32;6.40;;;1.70;;
50429;SDS011;36359;41.556;-8.418;2022-10-19T12:40:20;7.25;;;1.60;;
50429;SDS011;36359;41.556;-8.418;2022-10-19T12:46:22;12.57;;;1.80;;
50429;SDS011;36359;41.556;-8.418;2022-10-19T12:48:40;8.32;;;1.70;;
50429;SDS011;36359;41.556;-8.418;2022-10-19T12:51:07;13.25;;;2.30;;
50429;SDS011;36359;41.556;-8.418;2022-10-19T13:01:06;9.60;;;1.52;;
50429;SDS011;36359;41.556;-8.418;2022-10-19T13:03:42;11.73;;;1.65;;
50429;SDS011;36359;41.556;-8.418;2022-10-19T13:06:18;7.82;;;2.15;;
50429;SDS011;36359;41.556;-8.418;2022-10-19T13:08:57;8.65;;;1.73;;
50429;SDS011;36359;41.556;-8.418;2022-10-19T13:11:26;8.73;;;1.58;;
50429;SDS011;36359;41.556;-8.418;2022-10-19T13:13:54;6.75;;;1.40;;
50429;SDS011;36359;41.556;-8.418;2022-10-19T13:16:32;7.65;;;1.25;;
50429;SDS011;36359;41.556;-8.418;2022-10-19T13:40:54;8.65;;;2.03;;
50429;SDS011;36359;41.556;-8.418;2022-10-19T13:43:25;10.23;;;1.40;;
50429;SDS011;36359;41.556;-8.418;2022-10-19T13:57:05;5.45;;;1.30;;
50429;SDS011;36359;41.556;-8.418;2022-10-19T14:00:01;8.50;;;1.50;;
50429;SDS011;36359;41.556;-8.418;2022-10-19T14:08:08;7.90;;;1.48;;
50429;SDS011;36359;41.556;-8.418;2022-10-19T14:11:04;7.60;;;1.20;;
50429;SDS011;36359;41.556;-8.418;2022-10-19T14:16:03;7.72;;;1.23;;
50429;SDS011;36359;41.556;-8.418;2022-10-19T14:18:30;7.65;;;1.10;;
50429;SDS011;36359;41.556;-8.418;2022-10-19T14:21:01;5.10;;;1.27;;
50429;SDS011;36359;41.556;-8.418;2022-10-19T14:23:32;5.25;;;0.90;;
50429;SDS011;36359;41.556;-8.418;2022-10-19T14:26:03;5.15;;;1.20;;
50429;SDS011;36359;41.556;-8.418;2022-10-19T14:28:30;7.07;;;0.80;;
50429;SDS011;36359;41.556;-8.418;2022-10-19T14:31:01;7.88;;;1.15;;
50429;SDS011;36359;41.556;-8.418;2022-10-19T14:33:32;7.65;;;1.10;;
50429;SDS011;36359;41.556;-8.418;2022-10-19T14:36:00;6.93;;;1.40;;
50429;SDS011;36359;41.556;-8.418;2022-10-19T14:41:03;4.70;;;1.50;;
50429;SDS011;36359;41.556;-8.418;2022-10-19T14:43:31;7.75;;;1.73;;
50429;SDS011;36359;41.556;-8.418;2022-10-19T14:48:33;6.93;;;1.45;;
50429;SDS011;36359;41.556;-8.418;2022-10-19T14:51:00;7.68;;;1.70;;
50429;SDS011;36359;41.556;-8.418;2022-10-19T14:56:14;9.27;;;2.30;;
50429;SDS011;36359;41.556;-8.418;2022-10-19T14:58:58;5.45;;;1.08;;
50429;SDS011;36359;41.556;-8.418;2022-10-19T15:01:27;6.47;;;1.48;;
50429;SDS011;36359;41.556;-8.418;2022-10-19T15:03:53;7.88;;;1.70;;
50429;SDS011;36359;41.556;-8.418;2022-10-19T15:06:24;7.20;;;1.50;;
50429;SDS011;36359;41.556;-8.418;2022-10-19T15:08:58;6.05;;;1.27;;
50429;SDS011;36359;41.556;-8.418;2022-10-19T15:11:29;14.13;;;3.28;;
50429;SDS011;36359;41.556;-8.418;2022-10-19T15:24:40;9.45;;;1.80;;
50429;SDS011;36359;41.556;-8.418;2022-10-19T15:27:27;10.27;;;2.40;;
50429;SDS011;36359;41.556;-8.418;2022-10-19T15:30:38;8.65;;;2.03;;
50429;SDS011;36359;41.556;-8.418;2022-10-19T15:32:53;10.27;;;2.15;;
50429;SDS011;36359;41.556;-8.418;2022-10-19T15:35:27;10.88;;;2.65;;
50429;SDS011;36359;41.556;-8.418;2022-10-19T15:38:00;6.43;;;1.80;;
50429;SDS011;36359;41.556;-8.418;2022-10-19T15:43:22;11.32;;;2.08;;
50429;SDS011;36359;41.556;-8.418;2022-10-19T15:46:02;7.10;;;2.10;;
50429;SDS011;36359;41.556;-8.418;2022-10-19T15:53:50;8.23;;;2.35;;
50429;SDS011;36359;41.556;-8.418;2022-10-19T15:56:17;5.57;;;1.58;;
50429;SDS011;36359;41.556;-8.418;2022-10-19T15:58:43;8.35;;;2.20;;
50429;SDS011;36359;41.556;-8.418;2022-10-19T16:01:14;7.63;;;2.45;;
50429;SDS011;36359;41.556;-8.418;2022-10-19T16:03:42;5.80;;;1.88;;
50429;SDS011;36359;41.556;-8.418;2022-10-19T16:06:08;10.35;;;2.05;;
50429;SDS011;36359;41.556;-8.418;2022-10-19T16:08:34;10.63;;;1.92;;
50429;SDS011;36359;41.556;-8.418;2022-10-19T16:11:00;8.60;;;2.63;;
50429;SDS011;36359;41.556;-8.418;2022-10-19T16:13:25;7.80;;;1.83;;
50429;SDS011;36359;41.556;-8.418;2022-10-19T16:15:51;17.27;;;2.70;;
50429;SDS011;36359;41.556;-8.418;2022-10-19T16:18:25;8.68;;;2.40;;
50429;SDS011;36359;41.556;-8.418;2022-10-19T16:20:51;8.02;;;1.77;;
50429;SDS011;36359;41.556;-8.418;2022-10-19T16:23:17;14.38;;;2.25;;
50429;SDS011;36359;41.556;-8.418;2022-10-19T16:25:43;12.07;;;2.60;;
50429;SDS011;36359;41.556;-8.418;2022-10-19T16:28:08;7.07;;;1.55;;
50429;SDS011;36359;41.556;-8.418;2022-10-19T16:30:34;11.30;;;2.30;;
50429;SDS011;36359;41.556;-8.418;2022-10-19T16:33:00;9.15;;;2.15;;
50429;SDS011;36359;41.556;-8.418;2022-10-19T16:35:26;9.50;;;2.35;;
50429;SDS011;36359;41.556;-8.418;2022-10-19T16:37:51;11.38;;;2.30;;
50429;SDS011;36359;41.556;-8.418;2022-10-19T16:40:17;8.32;;;2.50;;
50429;SDS011;36359;41.556;-8.418;2022-10-19T16:42:43;10.60;;;2.45;;
50429;SDS011;36359;41.556;-8.418;2022-10-19T16:45:09;6.47;;;2.03;;
50429;SDS011;36359;41.556;-8.418;2022-10-19T16:47:35;6.07;;;1.92;;
50429;SDS011;36359;41.556;-8.418;2022-10-19T16:50:01;11.35;;;2.10;;
50429;SDS011;36359;41.556;-8.418;2022-10-19T16:52:29;6.60;;;1.67;;
50429;SDS011;36359;41.556;-8.418;2022-10-19T16:54:58;8.40;;;1.88;;
50429;SDS011;36359;41.556;-8.418;2022-10-19T16:57:24;7.88;;;2.15;;
50429;SDS011;36359;41.556;-8.418;2022-10-19T16:59:51;7.07;;;1.45;;
50429;SDS011;36359;41.556;-8.418;2022-10-19T17:02:18;8.13;;;1.80;;
50429;SDS011;36359;41.556;-8.418;2022-10-19T17:04:45;11.32;;;2.08;;
50429;SDS011;36359;41.556;-8.418;2022-10-19T17:07:11;11.32;;;1.98;;
50429;SDS011;36359;41.556;-8.418;2022-10-19T17:09:38;6.68;;;1.80;;
50429;SDS011;36359;41.556;-8.418;2022-10-19T17:12:04;6.25;;;1.98;;
50429;SDS011;36359;41.556;-8.418;2022-10-19T17:14:31;5.72;;;1.98;;
50429;SDS011;36359;41.556;-8.418;2022-10-19T17:16:57;6.47;;;1.58;;
50429;SDS011;36359;41.556;-8.418;2022-10-19T17:19:24;9.52;;;2.40;;
50429;SDS011;36359;41.556;-8.418;2022-10-19T17:21:56;9.63;;;2.17;;
50429;SDS011;36359;41.556;-8.418;2022-10-19T17:24:23;7.68;;;1.83;;
50429;SDS011;36359;41.556;-8.418;2022-10-19T17:26:50;8.45;;;1.92;;
50429;SDS011;36359;41.556;-8.418;2022-10-19T17:29:17;6.85;;;1.80;;
50429;SDS011;36359;41.556;-8.418;2022-10-19T17:31:43;8.07;;;1.80;;
50429;SDS011;36359;41.556;-8.418;2022-10-19T17:34:10;8.63;;;1.95;;
50429;SDS011;36359;41.556;-8.418;2022-10-19T17:36:39;8.88;;;1.63;;
50429;SDS011;36359;41.556;-8.418;2022-10-19T17:39:19;9.13;;;1.77;;
50429;SDS011;36359;41.556;-8.418;2022-10-19T17:41:46;7.53;;;1.60;;
50429;SDS011;36359;41.556;-8.418;2022-10-19T17:44:13;10.80;;;2.15;;
50429;SDS011;36359;41.556;-8.418;2022-10-19T17:46:40;11.05;;;1.70;;
50429;SDS011;36359;41.556;-8.418;2022-10-19T17:49:06;6.97;;;1.80;;
50429;SDS011;36359;41.556;-8.418;2022-10-19T17:51:32;7.53;;;2.00;;